<?xml version="1.0" encoding="UTF-8" standalone="no" ?>
<gpx xmlns="http://www.topografix.com/GPX/1/1" xmlns:xsi="http://www.w3.org/2001/XMLSchema-instance" xsi:schemaLocation="http://www.topografix.com/GPX/1/1 http://www.topografix.com/GPX/1/1/gpx.xsd" version="1.1" creator="VisuGPX - https://www.visugpx.com">
  <metadata>
    <name>1er essais d\'endomondo à Bussang - SKI</name>
    <desc><![CDATA[Monter au téleski à Bussang Larcenaire   la descente]]></desc>
  </metadata>
  <trk>
    <name><![CDATA[1er essais d\'endomondo à Bussang - SKI_1]]></name>
    <trkseg>
      <trkpt lat="47.90091" lon="6.85897">
        <ele>833.5</ele>
        <time>2011-02-06T10:57:04Z</time>
      </trkpt>
      <trkpt lat="47.90091" lon="6.85897">
        <ele>874</ele>
        <time>2011-02-06T10:57:07Z</time>
      </trkpt>
      <trkpt lat="47.90086" lon="6.85887">
        <ele>876</ele>
        <time>2011-02-06T10:57:11Z</time>
      </trkpt>
      <trkpt lat="47.90083" lon="6.85878">
        <ele>878</ele>
        <time>2011-02-06T10:57:14Z</time>
      </trkpt>
      <trkpt lat="47.9008" lon="6.8587">
        <ele>879</ele>
        <time>2011-02-06T10:57:17Z</time>
      </trkpt>
      <trkpt lat="47.90077" lon="6.85861">
        <ele>880</ele>
        <time>2011-02-06T10:57:20Z</time>
      </trkpt>
      <trkpt lat="47.9007" lon="6.85841">
        <ele>882</ele>
        <time>2011-02-06T10:57:27Z</time>
      </trkpt>
      <trkpt lat="47.90066" lon="6.85832">
        <ele>883</ele>
        <time>2011-02-06T10:57:30Z</time>
      </trkpt>
      <trkpt lat="47.90063" lon="6.85821">
        <ele>883</ele>
        <time>2011-02-06T10:57:33Z</time>
      </trkpt>
      <trkpt lat="47.90058" lon="6.85803">
        <ele>884</ele>
        <time>2011-02-06T10:57:39Z</time>
      </trkpt>
      <trkpt lat="47.90055" lon="6.85795">
        <ele>886</ele>
        <time>2011-02-06T10:57:42Z</time>
      </trkpt>
      <trkpt lat="47.90051" lon="6.85787">
        <ele>887</ele>
        <time>2011-02-06T10:57:45Z</time>
      </trkpt>
      <trkpt lat="47.90041" lon="6.85759">
        <ele>892</ele>
        <time>2011-02-06T10:57:55Z</time>
      </trkpt>
      <trkpt lat="47.90034" lon="6.85741">
        <ele>896</ele>
        <time>2011-02-06T10:58:02Z</time>
      </trkpt>
      <trkpt lat="47.90031" lon="6.85729">
        <ele>898</ele>
        <time>2011-02-06T10:58:06Z</time>
      </trkpt>
      <trkpt lat="47.90028" lon="6.85719">
        <ele>899</ele>
        <time>2011-02-06T10:58:10Z</time>
      </trkpt>
      <trkpt lat="47.90024" lon="6.8571">
        <ele>902</ele>
        <time>2011-02-06T10:58:13Z</time>
      </trkpt>
      <trkpt lat="47.90017" lon="6.85692">
        <ele>907</ele>
        <time>2011-02-06T10:58:19Z</time>
      </trkpt>
      <trkpt lat="47.90014" lon="6.85683">
        <ele>910</ele>
        <time>2011-02-06T10:58:22Z</time>
      </trkpt>
      <trkpt lat="47.90006" lon="6.85665">
        <ele>916</ele>
        <time>2011-02-06T10:58:29Z</time>
      </trkpt>
      <trkpt lat="47.9" lon="6.85647">
        <ele>918</ele>
        <time>2011-02-06T10:58:35Z</time>
      </trkpt>
      <trkpt lat="47.89996" lon="6.85637">
        <ele>919</ele>
        <time>2011-02-06T10:58:39Z</time>
      </trkpt>
      <trkpt lat="47.89992" lon="6.85627">
        <ele>921</ele>
        <time>2011-02-06T10:58:42Z</time>
      </trkpt>
      <trkpt lat="47.89989" lon="6.85616">
        <ele>924</ele>
        <time>2011-02-06T10:58:46Z</time>
      </trkpt>
      <trkpt lat="47.89989" lon="6.85616">
        <ele>891.1</ele>
        <time>2011-02-06T10:58:58Z</time>
      </trkpt>
      <trkpt lat="47.89989" lon="6.85616">
        <ele>891.1</ele>
        <time>2011-02-06T10:58:58Z</time>
      </trkpt>
      <trkpt lat="47.89974" lon="6.85574">
        <ele>930</ele>
        <time>2011-02-06T10:59:02Z</time>
      </trkpt>
      <trkpt lat="47.89967" lon="6.85557">
        <ele>937</ele>
        <time>2011-02-06T10:59:08Z</time>
      </trkpt>
      <trkpt lat="47.89967" lon="6.85557">
        <ele>905</ele>
        <time>2011-02-06T10:59:20Z</time>
      </trkpt>
      <trkpt lat="47.89967" lon="6.85557">
        <ele>905</ele>
        <time>2011-02-06T10:59:45Z</time>
      </trkpt>
      <trkpt lat="47.89947" lon="6.85632">
        <ele>937</ele>
        <time>2011-02-06T10:59:46Z</time>
      </trkpt>
      <trkpt lat="47.89954" lon="6.85704">
        <ele>934</ele>
        <time>2011-02-06T10:59:50Z</time>
      </trkpt>
      <trkpt lat="47.89969" lon="6.85751">
        <ele>930</ele>
        <time>2011-02-06T10:59:53Z</time>
      </trkpt>
      <trkpt lat="47.90014" lon="6.85846">
        <ele>925</ele>
        <time>2011-02-06T10:59:58Z</time>
      </trkpt>
      <trkpt lat="47.90046" lon="6.85893">
        <ele>920</ele>
        <time>2011-02-06T11:00:01Z</time>
      </trkpt>
      <trkpt lat="47.90085" lon="6.85943">
        <ele>911</ele>
        <time>2011-02-06T11:00:05Z</time>
      </trkpt>
      <trkpt lat="47.90108" lon="6.85958">
        <ele>898</ele>
        <time>2011-02-06T11:00:09Z</time>
      </trkpt>
      <trkpt lat="47.90109" lon="6.85947">
        <ele>894</ele>
        <time>2011-02-06T11:00:12Z</time>
      </trkpt>
      <trkpt lat="47.90109" lon="6.85947">
        <ele>830</ele>
        <time>2011-02-06T11:00:23Z</time>
      </trkpt>
      <trkpt lat="47.90109" lon="6.85947">
        <ele>830</ele>
        <time>2011-02-06T11:00:45Z</time>
      </trkpt>
    </trkseg>
  </trk>
</gpx>